createdAt,value
2022-08-19T00:00:52.182Z,13.90
2022-08-19T00:01:53.496Z,13.60
2022-08-19T00:02:52.426Z,12.90
2022-08-19T00:03:52.136Z,15.00
2022-08-19T00:04:52.278Z,14.40
2022-08-19T00:05:52.131Z,13.50
2022-08-19T00:06:52.128Z,15.20
2022-08-19T00:07:52.084Z,13.30
2022-08-19T00:08:52.076Z,14.60
2022-08-19T00:09:52.064Z,15.00
2022-08-19T00:10:52.051Z,15.00
2022-08-19T00:11:52.062Z,13.60
2022-08-19T00:12:52.176Z,13.60
2022-08-19T00:13:52.024Z,13.60
2022-08-19T00:14:51.995Z,16.50
2022-08-19T00:15:52.023Z,12.90
2022-08-19T00:16:51.997Z,13.20
2022-08-19T00:17:51.963Z,14.70
2022-08-19T00:18:51.928Z,14.50
2022-08-19T00:19:51.936Z,14.90
2022-08-19T00:20:51.910Z,17.10
2022-08-19T00:21:51.934Z,14.40
2022-08-19T00:22:52.024Z,14.70
2022-08-19T00:23:51.869Z,14.20
2022-08-19T00:24:51.855Z,13.10
2022-08-19T00:25:51.837Z,16.00
2022-08-19T00:26:51.879Z,15.30
2022-08-19T00:27:51.837Z,15.20
2022-08-19T00:28:51.823Z,14.10
2022-08-19T00:29:52.789Z,13.70
2022-08-19T00:30:51.917Z,14.20
2022-08-19T00:31:51.760Z,15.20
2022-08-19T00:32:52.025Z,14.60
2022-08-19T00:33:51.745Z,13.70
2022-08-19T00:34:51.732Z,13.60
2022-08-19T00:35:56.192Z,13.30
2022-08-19T00:36:51.780Z,15.10
2022-08-19T00:37:51.738Z,13.30
2022-08-19T00:38:51.688Z,14.80
2022-08-19T00:39:51.726Z,13.10
2022-08-19T00:40:51.664Z,13.30
2022-08-19T00:41:51.629Z,14.00
2022-08-19T00:42:51.773Z,13.90
2022-08-19T00:43:51.629Z,13.00
2022-08-19T00:44:51.591Z,12.90
2022-08-19T00:45:51.629Z,13.20
2022-08-19T00:46:58.200Z,12.90
2022-08-19T00:47:51.601Z,13.40
2022-08-19T00:48:51.535Z,13.20
2022-08-19T00:49:51.740Z,13.50
2022-08-19T00:50:52.165Z,14.20
2022-08-19T00:51:52.311Z,15.50
2022-08-19T00:52:51.620Z,14.40
2022-08-19T00:53:51.491Z,16.60
2022-08-19T00:54:52.731Z,16.50
2022-08-19T00:55:51.562Z,15.20
2022-08-19T00:56:51.424Z,16.40
2022-08-19T00:57:51.419Z,16.40
2022-08-19T00:58:51.416Z,17.60
2022-08-19T00:59:56.503Z,15.90
2022-08-19T01:00:51.389Z,18.00
2022-08-19T01:01:51.399Z,20.90
2022-08-19T01:02:51.392Z,15.40
2022-08-19T01:03:57.499Z,16.70
2022-08-19T01:04:51.370Z,15.90
2022-08-19T01:05:52.769Z,15.00
2022-08-19T01:06:52.221Z,18.20
2022-08-19T01:07:51.310Z,16.00
2022-08-19T01:08:51.281Z,15.50
2022-08-19T01:09:51.273Z,17.50
2022-08-19T01:10:51.270Z,15.70
2022-08-19T01:11:51.245Z,16.50
2022-08-19T01:12:51.298Z,17.80
2022-08-19T01:13:51.238Z,19.20
2022-08-19T01:14:51.214Z,17.10
2022-08-19T01:15:51.215Z,19.60
2022-08-19T01:16:51.174Z,18.60
2022-08-19T01:17:51.155Z,16.70
2022-08-19T01:18:51.152Z,18.00
2022-08-19T01:19:51.125Z,18.60
2022-08-19T01:20:51.122Z,16.70
2022-08-19T01:21:51.142Z,16.70
2022-08-19T01:22:51.351Z,18.80
2022-08-19T01:23:51.077Z,17.50
2022-08-19T01:24:51.102Z,17.70
2022-08-19T01:25:51.142Z,18.10
2022-08-19T01:26:51.053Z,17.40
2022-08-19T01:27:53.382Z,19.00
2022-08-19T01:28:51.826Z,18.60
2022-08-19T01:29:51.004Z,19.40
2022-08-19T01:30:51.336Z,18.70
2022-08-19T01:31:51.001Z,19.40
2022-08-19T01:32:51.281Z,18.60
2022-08-19T01:33:50.961Z,17.90
2022-08-19T01:34:50.918Z,19.80
2022-08-19T01:35:50.917Z,20.90
2022-08-19T01:36:50.901Z,18.80
2022-08-19T01:37:50.883Z,22.00
2022-08-19T01:38:50.876Z,18.80
2022-08-19T01:39:50.882Z,19.00
2022-08-19T01:40:50.838Z,22.00
2022-08-19T01:41:50.876Z,20.00
2022-08-19T01:42:52.489Z,19.90
2022-08-19T01:44:03.805Z,21.00
2022-08-19T01:44:50.799Z,21.80
2022-08-19T01:45:50.858Z,19.80
2022-08-19T01:46:52.243Z,21.10
2022-08-19T01:48:01.130Z,22.00
2022-08-19T01:48:50.751Z,19.50
2022-08-19T01:49:50.748Z,21.60
2022-08-19T01:50:50.700Z,22.40
2022-08-19T01:51:50.734Z,22.30
2022-08-19T01:53:06.389Z,23.20
2022-08-19T01:53:51.600Z,23.40
2022-08-19T01:54:50.675Z,22.90
2022-08-19T01:55:50.661Z,23.40
2022-08-19T01:56:50.622Z,21.10
2022-08-19T01:57:50.659Z,22.30
2022-08-19T01:58:50.628Z,23.70
2022-08-19T01:59:50.635Z,22.80
2022-08-19T02:00:50.581Z,23.50
2022-08-19T02:01:50.614Z,21.90
2022-08-19T02:02:50.550Z,21.70
2022-08-19T02:03:50.546Z,22.00
2022-08-19T02:04:50.542Z,24.40
2022-08-19T02:05:50.560Z,24.50
2022-08-19T02:06:50.518Z,25.10
2022-08-19T02:07:50.497Z,22.90
2022-08-19T02:08:51.322Z,24.40
2022-08-19T02:09:50.489Z,23.90
2022-08-19T02:10:50.449Z,23.50
2022-08-19T02:11:50.433Z,25.10
2022-08-19T02:12:50.440Z,27.00
2022-08-19T02:13:50.431Z,25.70
2022-08-19T02:14:50.390Z,24.80
2022-08-19T02:15:50.388Z,23.80
2022-08-19T02:16:50.390Z,26.80
2022-08-19T02:17:50.369Z,23.90
2022-08-19T02:18:50.383Z,22.30
2022-08-19T02:19:50.388Z,26.10
2022-08-19T02:20:50.302Z,25.30
2022-08-19T02:21:50.309Z,28.30
2022-08-19T02:22:50.295Z,24.10
2022-08-19T02:23:51.084Z,26.10
2022-08-19T02:24:50.272Z,24.70
2022-08-19T02:25:50.247Z,25.90
2022-08-19T02:26:50.226Z,24.00
2022-08-19T02:27:50.220Z,24.60
2022-08-19T02:28:50.239Z,24.90
2022-08-19T02:29:50.233Z,23.40
2022-08-19T02:30:50.188Z,23.70
2022-08-19T02:31:50.183Z,23.20
2022-08-19T02:32:50.162Z,27.00
2022-08-19T02:33:50.138Z,24.50
2022-08-19T02:34:50.168Z,25.30
2022-08-19T02:35:50.106Z,24.30
2022-08-19T02:36:51.789Z,25.50
2022-08-19T02:37:50.128Z,24.80
2022-08-19T02:38:54.404Z,24.60
2022-08-19T02:39:50.144Z,24.80
2022-08-19T02:40:50.749Z,25.90
2022-08-19T02:41:50.037Z,22.40
2022-08-19T02:42:50.047Z,25.70
2022-08-19T02:44:30.245Z,27.30
2022-08-19T02:44:49.995Z,26.80
2022-08-19T02:45:49.985Z,26.80
2022-08-19T02:46:49.961Z,25.60
2022-08-19T02:47:49.973Z,26.80
2022-08-19T02:48:49.935Z,26.50
2022-08-19T02:49:49.925Z,24.60
2022-08-19T02:50:53.153Z,25.50
2022-08-19T02:51:49.923Z,23.50
2022-08-19T02:52:49.915Z,26.80
2022-08-19T02:53:49.885Z,23.90
2022-08-19T02:54:49.863Z,26.60
2022-08-19T02:55:49.875Z,26.50
2022-08-19T02:56:49.851Z,28.90
2022-08-19T02:57:49.820Z,26.80
2022-08-19T02:58:49.824Z,28.00
2022-08-19T02:59:49.810Z,24.80
2022-08-19T03:00:49.777Z,27.70
2022-08-19T03:01:49.826Z,24.90
2022-08-19T03:02:49.843Z,27.50
2022-08-19T03:03:49.746Z,26.70
2022-08-19T03:04:49.732Z,25.20
2022-08-19T03:05:56.804Z,25.10
2022-08-19T03:06:49.740Z,27.90
2022-08-19T03:07:49.689Z,24.60
2022-08-19T03:08:50.630Z,27.80
2022-08-19T03:09:49.671Z,24.00
2022-08-19T03:10:49.648Z,25.90
2022-08-19T03:11:49.901Z,25.00
2022-08-19T03:12:50.601Z,26.00
2022-08-19T03:13:49.606Z,28.40
2022-08-19T03:14:49.605Z,27.30
2022-08-19T03:15:49.589Z,28.00
2022-08-19T03:16:49.594Z,27.20
2022-08-19T03:17:50.322Z,27.30
2022-08-19T03:18:49.591Z,26.10
2022-08-19T03:19:49.541Z,26.70
2022-08-19T03:20:49.515Z,25.90
2022-08-19T03:21:49.523Z,28.00
2022-08-19T03:22:49.487Z,24.70
2022-08-19T03:23:49.468Z,23.30
2022-08-19T03:24:49.488Z,26.60
2022-08-19T03:26:03.833Z,24.10
2022-08-19T03:26:49.517Z,25.50
2022-08-19T03:27:49.412Z,24.20
2022-08-19T03:28:51.397Z,24.10
2022-08-19T03:29:49.459Z,26.90
2022-08-19T03:30:50.329Z,23.00
2022-08-19T03:31:52.609Z,23.20
2022-08-19T03:32:51.399Z,23.50
2022-08-19T03:33:49.337Z,23.60
2022-08-19T03:34:49.365Z,23.30
2022-08-19T03:35:49.307Z,21.10
2022-08-19T03:36:49.304Z,26.30
2022-08-19T03:37:49.307Z,26.70
2022-08-19T03:38:49.273Z,24.90
2022-08-19T03:39:49.372Z,24.40
2022-08-19T03:40:49.259Z,22.60
2022-08-19T03:41:49.237Z,24.40
2022-08-19T03:42:49.707Z,24.40
2022-08-19T03:43:49.217Z,21.70
2022-08-19T03:44:49.218Z,23.20
2022-08-19T03:45:49.185Z,24.40
2022-08-19T03:46:49.183Z,24.60
2022-08-19T03:47:49.170Z,26.10
2022-08-19T03:48:49.180Z,24.10
2022-08-19T03:49:49.131Z,24.30
2022-08-19T03:50:49.159Z,23.70
2022-08-19T03:51:49.092Z,22.90
2022-08-19T03:52:49.095Z,22.80
2022-08-19T03:53:49.073Z,22.50
2022-08-19T03:54:49.146Z,25.90
2022-08-19T03:55:49.046Z,22.40
2022-08-19T03:56:49.035Z,24.60
2022-08-19T03:57:49.073Z,24.80
2022-08-19T03:58:48.999Z,23.80
2022-08-19T03:59:48.986Z,24.90
2022-08-19T04:00:49.022Z,27.60
2022-08-19T04:01:48.952Z,25.10
2022-08-19T04:02:58.030Z,25.40
2022-08-19T04:03:48.950Z,26.60
2022-08-19T04:04:48.924Z,24.50
2022-08-19T04:05:48.912Z,27.90
2022-08-19T04:06:48.915Z,24.20
2022-08-19T04:07:48.907Z,28.00
2022-08-19T04:08:48.872Z,26.70
2022-08-19T04:09:48.872Z,26.80
2022-08-19T04:10:48.843Z,30.50
2022-08-19T04:11:48.858Z,29.20
2022-08-19T04:12:48.897Z,29.60
2022-08-19T04:13:48.798Z,28.90
2022-08-19T04:14:48.848Z,28.40
2022-08-19T04:15:48.779Z,30.00
2022-08-19T04:16:48.783Z,29.00
2022-08-19T04:17:48.796Z,29.90
2022-08-19T04:18:48.835Z,29.40
2022-08-19T04:19:48.761Z,28.20
2022-08-19T04:20:48.718Z,25.70
2022-08-19T04:21:48.703Z,26.90
2022-08-19T04:22:48.689Z,26.60
2022-08-19T04:23:48.682Z,26.30
2022-08-19T04:24:48.685Z,30.20
2022-08-19T04:25:48.644Z,28.50
2022-08-19T04:26:48.656Z,27.50
2022-08-19T04:27:48.635Z,27.70
2022-08-19T04:28:48.632Z,27.50
2022-08-19T04:29:48.612Z,27.00
2022-08-19T04:30:48.604Z,29.00
2022-08-19T04:31:48.607Z,26.10
2022-08-19T04:32:48.596Z,30.90
2022-08-19T04:33:48.567Z,26.30
2022-08-19T04:35:01.294Z,27.90
2022-08-19T04:35:48.533Z,26.90
2022-08-19T04:36:48.595Z,25.90
2022-08-19T04:37:48.500Z,27.70
2022-08-19T04:38:48.481Z,28.80
2022-08-19T04:39:48.591Z,26.80
2022-08-19T04:40:48.475Z,26.50
2022-08-19T04:41:48.438Z,28.60
2022-08-19T04:42:48.425Z,29.20
2022-08-19T04:43:48.413Z,29.10
2022-08-19T04:44:48.414Z,26.70
2022-08-19T04:45:48.393Z,25.50
2022-08-19T04:46:51.604Z,26.10
2022-08-19T04:47:57.913Z,26.60
2022-08-19T04:48:49.597Z,28.40
2022-08-19T04:49:48.331Z,29.20
2022-08-19T04:50:48.318Z,28.00
2022-08-19T04:51:48.308Z,27.30
2022-08-19T04:52:48.342Z,23.80
2022-08-19T04:53:48.284Z,27.20
2022-08-19T04:54:48.271Z,25.40
2022-08-19T04:55:48.258Z,27.70
2022-08-19T04:56:48.247Z,25.60
2022-08-19T04:57:48.237Z,27.50
2022-08-19T04:58:48.199Z,28.00
2022-08-19T04:59:48.217Z,24.70
2022-08-19T05:00:48.282Z,26.50
2022-08-19T05:01:48.187Z,23.40
2022-08-19T05:02:48.155Z,25.40
2022-08-19T05:03:48.160Z,28.20
2022-08-19T05:04:48.181Z,23.70
2022-08-19T05:05:48.128Z,24.60
2022-08-19T05:06:48.118Z,27.80
2022-08-19T05:07:48.096Z,24.80
2022-08-19T05:08:48.079Z,23.50
2022-08-19T05:09:58.390Z,25.80
2022-08-19T05:10:48.093Z,27.30
2022-08-19T05:11:48.033Z,26.50
2022-08-19T05:12:48.017Z,26.30
2022-08-19T05:13:48.033Z,27.90
2022-08-19T05:14:48.003Z,27.40
2022-08-19T05:15:47.997Z,25.20
2022-08-19T05:16:48.021Z,27.70
2022-08-19T05:17:47.985Z,24.80
2022-08-19T05:18:47.945Z,25.20
2022-08-19T05:19:47.914Z,27.30
2022-08-19T05:20:47.915Z,26.50
2022-08-19T05:21:47.891Z,29.50
2022-08-19T05:22:48.003Z,26.50
2022-08-19T05:23:47.874Z,26.40
2022-08-19T05:25:11.347Z,26.10
2022-08-19T05:25:47.842Z,27.60
2022-08-19T05:26:47.841Z,31.10
2022-08-19T05:27:47.846Z,25.70
2022-08-19T05:28:48.958Z,26.30
2022-08-19T05:29:47.790Z,25.40
2022-08-19T05:30:47.842Z,28.90
2022-08-19T05:31:47.765Z,25.30
2022-08-19T05:32:47.881Z,25.20
2022-08-19T05:33:47.739Z,26.10
2022-08-19T05:34:47.730Z,26.70
2022-08-19T05:35:47.752Z,27.10
2022-08-19T05:36:47.707Z,26.00
2022-08-19T05:37:47.677Z,23.40
2022-08-19T05:38:47.701Z,22.90
2022-08-19T05:39:51.409Z,27.50
2022-08-19T05:40:47.657Z,26.20
2022-08-19T05:41:47.652Z,28.00
2022-08-19T05:42:55.093Z,29.00
2022-08-19T05:43:47.663Z,25.60
2022-08-19T05:44:47.594Z,27.00
2022-08-19T05:45:47.572Z,24.60
2022-08-19T05:46:47.570Z,26.10
2022-08-19T05:47:47.570Z,26.80
2022-08-19T05:48:47.552Z,27.40
2022-08-19T05:49:47.556Z,24.30
2022-08-19T05:50:47.514Z,25.40
2022-08-19T05:51:47.513Z,24.30
2022-08-19T05:52:50.251Z,23.60
2022-08-19T05:53:47.496Z,24.40
2022-08-19T05:54:48.327Z,27.10
2022-08-19T05:55:47.476Z,25.90
2022-08-19T05:56:47.425Z,23.50
2022-08-19T05:57:47.430Z,24.30
2022-08-19T05:58:47.404Z,23.90
2022-08-19T05:59:47.447Z,26.30
2022-08-19T06:00:47.386Z,25.90
2022-08-19T06:01:47.383Z,23.60
2022-08-19T06:02:47.561Z,25.00
2022-08-19T06:03:47.343Z,24.70
2022-08-19T06:04:47.317Z,26.50
2022-08-19T06:05:51.396Z,24.80
2022-08-19T06:06:47.339Z,25.80
2022-08-19T06:07:47.476Z,23.70
2022-08-19T06:08:47.272Z,24.90
2022-08-19T06:09:58.878Z,23.40
2022-08-19T06:10:47.241Z,24.40
2022-08-19T06:11:47.263Z,25.50
2022-08-19T06:12:47.223Z,25.40
2022-08-19T06:13:47.199Z,23.20
2022-08-19T06:14:47.221Z,24.30
2022-08-19T06:15:47.187Z,24.90
2022-08-19T06:16:47.205Z,24.90
2022-08-19T06:17:47.218Z,22.80
2022-08-19T06:18:47.162Z,25.80
2022-08-19T06:19:47.122Z,26.30
2022-08-19T06:21:00.258Z,25.40
2022-08-19T06:21:47.124Z,23.50
2022-08-19T06:22:47.097Z,22.80
2022-08-19T06:23:47.104Z,23.10
2022-08-19T06:24:47.090Z,22.00
2022-08-19T06:25:47.116Z,21.20
2022-08-19T06:28:14.182Z,21.30
2022-08-19T06:28:47.026Z,23.40
2022-08-19T06:29:47.025Z,23.10
2022-08-19T06:30:47.003Z,19.70
2022-08-19T06:31:46.966Z,20.50
2022-08-19T06:32:47.050Z,20.30
2022-08-19T06:33:46.970Z,22.20
2022-08-19T06:34:46.933Z,24.50
2022-08-19T06:35:46.938Z,22.70
2022-08-19T06:36:46.914Z,21.80
2022-08-19T06:37:46.957Z,23.30
2022-08-19T06:38:46.906Z,20.20
2022-08-19T06:39:46.975Z,24.20
2022-08-19T06:40:46.865Z,20.90
2022-08-19T06:41:51.507Z,23.40
2022-08-19T06:42:54.800Z,21.90
2022-08-19T06:43:46.852Z,20.70
2022-08-19T06:44:48.103Z,19.70
2022-08-19T06:45:46.807Z,20.60
2022-08-19T06:46:46.783Z,21.50
2022-08-19T06:47:46.769Z,22.20
2022-08-19T06:48:46.766Z,19.70
2022-08-19T06:49:46.785Z,20.60
2022-08-19T06:50:46.752Z,23.10
2022-08-19T06:51:46.723Z,20.40
2022-08-19T06:52:46.724Z,21.20
2022-08-19T06:53:47.093Z,21.20
2022-08-19T06:54:56.525Z,22.50
2022-08-19T06:55:46.707Z,20.70
2022-08-19T06:56:46.652Z,21.20
2022-08-19T06:57:46.638Z,21.00
2022-08-19T06:58:46.609Z,20.60
2022-08-19T06:59:46.609Z,21.30
2022-08-19T07:00:46.785Z,21.70
2022-08-19T07:01:46.648Z,22.10
2022-08-19T07:02:52.136Z,21.60
2022-08-19T07:03:46.571Z,22.50
2022-08-19T07:04:46.558Z,21.90
2022-08-19T07:05:47.245Z,19.20
2022-08-19T07:06:46.499Z,20.10
2022-08-19T07:07:47.666Z,21.20
2022-08-19T07:08:46.530Z,22.20
2022-08-19T07:09:58.350Z,19.90
2022-08-19T07:10:46.467Z,19.30
2022-08-19T07:11:46.490Z,19.60
2022-08-19T07:12:46.408Z,20.20
2022-08-19T07:13:46.404Z,23.40
2022-08-19T07:14:46.414Z,19.00
2022-08-19T07:15:46.400Z,21.50
2022-08-19T07:16:46.395Z,22.20
2022-08-19T07:17:52.529Z,20.70
2022-08-19T07:18:46.360Z,20.70
2022-08-19T07:19:46.349Z,21.20
2022-08-19T07:20:46.317Z,23.20
2022-08-19T07:21:46.343Z,22.80
2022-08-19T07:22:46.310Z,18.00
2022-08-19T07:23:46.284Z,22.60
2022-08-19T07:24:51.549Z,21.90
2022-08-19T07:25:52.471Z,21.90
2022-08-19T07:26:46.273Z,21.80
2022-08-19T07:27:46.527Z,20.80
2022-08-19T07:28:51.345Z,22.90
2022-08-19T07:29:46.204Z,21.90
2022-08-19T07:30:46.188Z,18.80
2022-08-19T07:31:46.164Z,18.30
2022-08-19T07:32:46.181Z,19.30
2022-08-19T07:33:46.153Z,20.10
2022-08-19T07:34:46.125Z,19.50
2022-08-19T07:35:46.107Z,20.20
2022-08-19T07:36:46.097Z,19.90
2022-08-19T07:37:46.139Z,19.40
2022-08-19T07:38:46.093Z,19.00
2022-08-19T07:39:46.151Z,17.10
2022-08-19T07:40:46.071Z,17.80
2022-08-19T07:41:46.062Z,18.60
2022-08-19T07:42:46.039Z,17.80
2022-08-19T07:43:46.033Z,19.40
2022-08-19T07:44:48.239Z,19.50
2022-08-19T07:45:46.015Z,17.90
2022-08-19T07:46:47.312Z,19.60
2022-08-19T07:47:50.228Z,14.80
2022-08-19T07:48:45.975Z,16.20
2022-08-19T07:49:45.948Z,16.70
2022-08-19T07:50:45.935Z,16.00
2022-08-19T07:51:45.906Z,17.60
2022-08-19T07:52:49.248Z,17.00
2022-08-19T07:53:45.882Z,17.60
2022-08-19T07:54:45.869Z,17.00
2022-08-19T07:55:45.891Z,15.20
2022-08-19T07:56:45.828Z,14.40
2022-08-19T07:57:45.830Z,18.10
2022-08-19T07:58:45.851Z,15.30
2022-08-19T07:59:45.820Z,17.70
2022-08-19T08:00:45.842Z,17.50
2022-08-19T08:01:45.794Z,16.00
2022-08-19T08:02:45.795Z,17.70
2022-08-19T08:03:45.780Z,16.70
2022-08-19T08:04:45.730Z,14.20
2022-08-19T08:05:45.758Z,15.30
2022-08-19T08:06:45.723Z,16.20
2022-08-19T08:07:46.329Z,13.60
2022-08-19T08:08:48.429Z,15.90
2022-08-19T08:09:49.530Z,12.40
2022-08-19T08:10:45.675Z,16.20
2022-08-19T08:11:45.639Z,15.50
2022-08-19T08:13:01.816Z,14.40
2022-08-19T08:13:45.620Z,17.60
2022-08-19T08:14:45.622Z,17.80
2022-08-19T08:15:45.596Z,19.50
2022-08-19T08:16:46.994Z,17.90
2022-08-19T08:17:48.724Z,17.40
2022-08-19T08:18:50.625Z,14.50
2022-08-19T08:19:45.572Z,16.40
2022-08-19T08:20:45.539Z,22.70
2022-08-19T08:21:45.506Z,16.70
2022-08-19T08:22:45.525Z,18.30
2022-08-19T08:23:45.545Z,14.80
2022-08-19T08:24:45.470Z,14.00
2022-08-19T08:25:45.488Z,14.50
2022-08-19T08:26:46.732Z,14.30
2022-08-19T08:27:45.440Z,13.70
2022-08-19T08:28:47.936Z,15.90
2022-08-19T08:29:45.423Z,13.30
2022-08-19T08:30:45.444Z,15.00
2022-08-19T08:31:45.405Z,11.90
2022-08-19T08:32:45.367Z,13.70
2022-08-19T08:33:45.391Z,12.30
2022-08-19T08:34:45.347Z,12.00
2022-08-19T08:35:45.335Z,15.20
2022-08-19T08:36:45.338Z,12.90
2022-08-19T08:37:45.294Z,11.40
2022-08-19T08:38:45.325Z,11.50
2022-08-19T08:39:45.334Z,11.50
2022-08-19T08:40:45.276Z,10.20
2022-08-19T08:41:45.249Z,10.60
2022-08-19T08:42:45.255Z,10.50
2022-08-19T08:43:45.251Z,13.20
2022-08-19T08:44:45.295Z,11.50
2022-08-19T08:45:45.213Z,10.10
2022-08-19T08:46:45.178Z,11.10
2022-08-19T08:47:45.156Z,10.90
2022-08-19T08:48:45.164Z,11.70
2022-08-19T08:49:45.172Z,11.60
2022-08-19T08:50:45.114Z,11.80
2022-08-19T08:51:45.188Z,11.70
2022-08-19T08:52:45.088Z,11.50
2022-08-19T08:53:45.097Z,11.50
2022-08-19T08:54:48.912Z,12.80
2022-08-19T08:55:45.103Z,11.60
2022-08-19T08:56:45.072Z,9.40
2022-08-19T08:57:45.047Z,10.70
2022-08-19T08:58:45.032Z,11.90
2022-08-19T08:59:45.028Z,10.80
2022-08-19T09:00:45.000Z,8.60
2022-08-19T09:01:45.015Z,10.30
2022-08-19T09:02:44.969Z,9.30
2022-08-19T09:03:44.969Z,12.50
2022-08-19T09:04:44.973Z,9.20
2022-08-19T09:05:48.662Z,8.70
2022-08-19T09:06:44.952Z,10.50
2022-08-19T09:07:47.366Z,8.40
2022-08-19T09:08:44.889Z,7.60
2022-08-19T09:09:44.883Z,10.40
2022-08-19T09:10:45.154Z,9.00
2022-08-19T09:11:44.970Z,9.50
2022-08-19T09:12:44.834Z,9.20
2022-08-19T09:13:44.846Z,8.70
2022-08-19T09:14:50.813Z,9.00
2022-08-19T09:15:44.848Z,10.90
2022-08-19T09:16:44.820Z,12.10
2022-08-19T09:17:44.779Z,11.20
2022-08-19T09:18:44.770Z,11.00
2022-08-19T09:19:44.749Z,8.30
2022-08-19T09:20:44.827Z,7.90
2022-08-19T09:21:44.721Z,9.60
2022-08-19T09:22:44.722Z,8.80
2022-08-19T09:23:44.726Z,9.00
2022-08-19T09:24:44.721Z,8.70
2022-08-19T09:25:44.698Z,6.90
2022-08-19T09:26:48.396Z,7.70
2022-08-19T09:27:44.646Z,10.10
2022-08-19T09:28:44.642Z,9.60
2022-08-19T09:29:44.622Z,6.90
2022-08-19T09:30:44.633Z,9.70
2022-08-19T09:31:44.647Z,7.70
2022-08-19T09:32:44.613Z,6.50
2022-08-19T09:33:44.604Z,6.90
2022-08-19T09:34:46.756Z,7.00
2022-08-19T09:35:53.140Z,8.00
2022-08-19T09:36:44.530Z,8.20
2022-08-19T09:37:44.542Z,7.00
2022-08-19T09:38:44.565Z,9.20
2022-08-19T09:39:44.539Z,7.60
2022-08-19T09:40:44.491Z,8.40
2022-08-19T09:41:47.647Z,7.30
2022-08-19T09:42:50.158Z,8.00
2022-08-19T09:43:48.058Z,7.90
2022-08-19T09:44:44.454Z,8.90
2022-08-19T09:45:44.410Z,8.20
2022-08-19T09:46:44.442Z,7.90
2022-08-19T09:47:44.403Z,6.60
2022-08-19T09:48:44.378Z,9.40
2022-08-19T09:49:44.423Z,8.00
2022-08-19T09:50:51.593Z,7.30
2022-08-19T09:51:46.888Z,7.70
2022-08-19T09:52:57.094Z,7.00
2022-08-19T09:53:44.328Z,7.20
2022-08-19T09:54:44.327Z,9.40
2022-08-19T09:55:44.286Z,8.70
2022-08-19T09:56:44.286Z,6.80
2022-08-19T09:57:44.255Z,7.50
2022-08-19T09:58:44.250Z,8.40
2022-08-19T09:59:44.223Z,8.60
2022-08-19T10:00:44.194Z,7.40
2022-08-19T10:01:44.233Z,7.80
2022-08-19T10:02:45.769Z,6.60
2022-08-19T10:03:44.188Z,8.60
2022-08-19T10:04:44.208Z,6.70
2022-08-19T10:05:44.172Z,8.40
2022-08-19T10:06:46.799Z,7.60
2022-08-19T10:07:44.114Z,7.10
2022-08-19T10:08:50.384Z,6.20
2022-08-19T10:09:44.097Z,6.40
2022-08-19T10:10:44.105Z,8.00
2022-08-19T10:11:51.180Z,8.50
2022-08-19T10:12:44.059Z,7.20
2022-08-19T10:13:44.059Z,7.40
2022-08-19T10:14:44.021Z,7.80
2022-08-19T10:15:47.725Z,6.30
2022-08-19T10:16:44.094Z,6.80
2022-08-19T10:17:47.591Z,8.30
2022-08-19T10:18:44.276Z,6.40
2022-08-19T10:19:43.993Z,7.20
2022-08-19T10:20:43.986Z,7.40
2022-08-19T10:21:43.940Z,8.90
2022-08-19T10:22:43.924Z,7.00
2022-08-19T10:23:43.937Z,7.30
2022-08-19T10:24:43.890Z,6.50
2022-08-19T10:25:43.886Z,7.20
2022-08-19T10:26:43.900Z,7.00
2022-08-19T10:27:46.552Z,7.90
2022-08-19T10:28:43.852Z,7.30
2022-08-19T10:29:46.376Z,7.50
2022-08-19T10:30:43.809Z,6.80
2022-08-19T10:31:59.707Z,6.60
2022-08-19T10:32:46.347Z,6.40
2022-08-19T10:33:53.985Z,12.10
2022-08-19T10:34:48.657Z,6.00
2022-08-19T10:35:56.390Z,9.10
2022-08-19T10:36:56.403Z,8.00
2022-08-19T10:37:57.003Z,7.30
2022-08-19T10:38:53.468Z,8.40
2022-08-19T10:39:43.747Z,6.70
2022-08-19T10:40:43.694Z,8.00
2022-08-19T10:41:43.669Z,7.30
2022-08-19T10:42:43.656Z,6.30
2022-08-19T10:43:43.682Z,7.50
2022-08-19T10:44:43.648Z,7.00
2022-08-19T10:45:52.177Z,6.50
2022-08-19T10:46:48.306Z,14.20
2022-08-19T10:47:43.601Z,7.60
2022-08-19T10:48:43.617Z,5.90
2022-08-19T10:49:43.571Z,6.70
2022-08-19T10:50:43.604Z,7.60
2022-08-19T10:51:48.023Z,6.30
2022-08-19T10:52:49.749Z,8.40
2022-08-19T10:53:43.537Z,7.60
2022-08-19T10:54:43.496Z,6.70
2022-08-19T10:55:43.509Z,6.80
2022-08-19T10:56:43.528Z,5.80
2022-08-19T10:58:01.715Z,8.60
2022-08-19T10:58:43.477Z,7.40
2022-08-19T10:59:43.486Z,7.70
2022-08-19T11:00:43.547Z,6.70
2022-08-19T11:01:43.480Z,6.70
2022-08-19T11:02:43.422Z,6.80
2022-08-19T11:03:43.446Z,5.80
2022-08-19T11:04:43.382Z,8.10
2022-08-19T11:05:43.376Z,7.70
2022-08-19T11:06:43.412Z,6.10
2022-08-19T11:07:43.365Z,8.40
2022-08-19T11:08:43.341Z,7.40
2022-08-19T11:09:43.394Z,7.30
2022-08-19T11:10:43.354Z,7.80
2022-08-19T11:11:43.322Z,8.00
2022-08-19T11:12:43.270Z,7.20
2022-08-19T11:13:43.267Z,5.90
2022-08-19T11:14:43.272Z,7.20
2022-08-19T11:15:43.262Z,6.20
2022-08-19T11:16:43.210Z,7.20
2022-08-19T11:17:43.250Z,7.20
2022-08-19T11:18:43.202Z,6.90
2022-08-19T11:19:43.184Z,7.90
2022-08-19T11:20:43.159Z,6.50
2022-08-19T11:21:43.152Z,8.00
2022-08-19T11:22:43.225Z,6.40
2022-08-19T11:23:43.128Z,8.90
2022-08-19T11:24:43.131Z,6.80
2022-08-19T11:25:43.097Z,6.00
2022-08-19T11:26:43.088Z,6.70
2022-08-19T11:27:43.153Z,8.50
2022-08-19T11:28:43.099Z,6.70
2022-08-19T11:29:43.071Z,8.30
2022-08-19T11:30:43.093Z,8.00
2022-08-19T11:31:43.052Z,6.90
2022-08-19T11:32:48.593Z,7.10
2022-08-19T11:33:47.675Z,6.40
2022-08-19T11:34:43.027Z,7.20
2022-08-19T11:35:43.057Z,7.30
2022-08-19T11:36:43.008Z,6.30
2022-08-19T11:37:43.008Z,7.00
2022-08-19T11:38:42.967Z,6.30
2022-08-19T11:39:43.034Z,7.70
2022-08-19T11:40:42.919Z,6.90
2022-08-19T11:41:42.903Z,8.10
2022-08-19T11:42:42.881Z,7.30
2022-08-19T11:43:42.878Z,7.40
2022-08-19T11:44:42.906Z,7.70
2022-08-19T11:45:42.872Z,6.90
2022-08-19T11:46:42.840Z,6.30
2022-08-19T11:47:42.814Z,9.00
2022-08-19T11:48:42.845Z,8.50
2022-08-19T11:49:42.840Z,12.30
2022-08-19T11:50:42.791Z,8.20
2022-08-19T11:51:42.782Z,7.50
2022-08-19T11:52:42.762Z,7.50
2022-08-19T11:53:42.742Z,7.10
2022-08-19T11:54:42.753Z,9.50
2022-08-19T11:55:43.408Z,6.80
2022-08-19T11:56:42.711Z,7.80
2022-08-19T11:57:42.722Z,7.30
2022-08-19T11:58:42.671Z,8.10
2022-08-19T11:59:42.697Z,5.80
2022-08-19T12:00:42.671Z,7.30
2022-08-19T12:01:42.628Z,7.80
2022-08-19T12:02:42.665Z,6.60
2022-08-19T12:03:42.642Z,6.60
2022-08-19T12:04:42.621Z,7.30
2022-08-19T12:05:42.652Z,7.90
2022-08-19T12:06:42.575Z,6.10
2022-08-19T12:07:42.569Z,7.50
2022-08-19T12:08:42.555Z,5.70
2022-08-19T12:09:42.669Z,6.20
2022-08-19T12:10:42.583Z,5.80
2022-08-19T12:11:42.534Z,6.80
2022-08-19T12:12:42.491Z,7.70
2022-08-19T12:13:42.499Z,6.20
2022-08-19T12:14:42.465Z,5.40
2022-08-19T12:15:42.476Z,7.10
2022-08-19T12:16:42.727Z,6.80
2022-08-19T12:17:42.451Z,5.80
2022-08-19T12:18:42.422Z,6.90
2022-08-19T12:19:42.445Z,7.20
2022-08-19T12:20:42.394Z,6.40
2022-08-19T12:21:42.385Z,5.60
2022-08-19T12:22:42.425Z,7.50
2022-08-19T12:23:42.351Z,7.00
2022-08-19T12:24:42.345Z,5.30
2022-08-19T12:25:42.369Z,6.00
2022-08-19T12:26:52.741Z,5.60
2022-08-19T12:27:44.535Z,6.50
2022-08-19T12:28:42.322Z,5.50
2022-08-19T12:29:42.268Z,7.90
2022-08-19T12:30:42.262Z,5.20
2022-08-19T12:31:42.280Z,7.40
2022-08-19T12:32:42.279Z,5.80
2022-08-19T12:33:42.219Z,5.40
2022-08-19T12:34:42.226Z,6.40
2022-08-19T12:35:45.563Z,8.10
2022-08-19T12:36:42.187Z,5.10
2022-08-19T12:37:42.205Z,5.80
2022-08-19T12:38:42.151Z,5.40
2022-08-19T12:39:42.173Z,5.80
2022-08-19T12:40:42.127Z,5.70
2022-08-19T12:41:51.227Z,6.30
2022-08-19T12:42:42.128Z,5.00
2022-08-19T12:43:42.097Z,5.50
2022-08-19T12:44:42.601Z,5.60
2022-08-19T12:45:42.073Z,6.50
2022-08-19T12:46:42.037Z,5.40
2022-08-19T12:47:42.994Z,5.90
2022-08-19T12:48:42.031Z,5.70
2022-08-19T12:49:54.591Z,5.60
2022-08-19T12:50:42.005Z,4.90
2022-08-19T12:51:42.038Z,6.20
2022-08-19T12:52:42.001Z,5.10
2022-08-19T12:53:41.965Z,5.30
2022-08-19T12:54:41.934Z,5.60
2022-08-19T12:55:41.951Z,5.60
2022-08-19T12:56:41.958Z,5.80
2022-08-19T12:57:41.933Z,4.80
2022-08-19T12:58:41.907Z,5.60
2022-08-19T12:59:41.927Z,5.30
2022-08-19T13:00:41.948Z,5.70
2022-08-19T13:01:41.862Z,6.00